Pope Valley, CA

3:57 AM PST on February 10, 2016 (GMT -0800)
North End Pope Valley | | Change Station
CLOSE
Current Station
Personal Weather Station
Location: Pope Valley, CA
Elevation: 784 ft
Nearby Weather Stations

Elev 784 ft 38.67 °N, 122.46 °W | Updated 45 seconds ago

Clear
Clear
40.5 °F
Feels Like 40 °F
N
0.0
Wind Variable Wind from WSW
Gusts 0.0 mph

Today
High -- | Low -- °F
--% Chance of Precip.
Yesterday
High -- | Low -- °F
Precip. -- in
Pressure 30.20 in
Visibility 10.0 miles
Clouds Clear
Windchill 40 °F
Dew Point 39 °F
Humidity 94%
Rainfall 0.00 in
Snow Depth Not available.
7:06 AM 5:41 PM
Waxing Crescent, 5% visible
METAR KSTS 101153Z AUTO 02004KT 10SM CLR 08/07 A3022 RMK AO2 SLP225 T00780067 10106 20067 55001
Pressure 30.20 in
Visibility 10.0 miles
Clouds Clear
Windchill 40 °F
Dew Point 39 °F
Humidity 94%
Rainfall 0.00 in
Snow Depth Not available.
7:06 AM 5:41 PM
Waxing Crescent, 5% visible
METAR KSTS 101153Z AUTO 02004KT 10SM CLR 08/07 A3022 RMK AO2 SLP225 T00780067 10106 20067 55001

10-Day Weather Forecast

Almanac

Astronomy

Feb. 10, 2016 Rise Set
Actual Time
Civil Twilight
Nautical Twilight
Astronomical Twilight
Moon
Length of Visible Light
Length of Day
Tomorrow will be .
, % of the Moon is Illuminated

Today's Extremes

State Highs State Lows

Community

WunderPhotos

Upload Photos

1,891,830 photos uploaded!

WunderBlog® & News

Nearby

Air Quality

  Air Quality AQ Index Pollutant
Not available.

Snow Depth

Station Depth Elevation

Earthquake Activity

City Distance Mag. Time & Date
Minimum magnitude displayed is 2.5.

Coastal Water Temperatures

Place Temperature

Stations

Nearby Weather Stations

Station Location Temp. Windchill Dew Point Humidity Wind Precip. Elev Updated Type
                   

Watches & Warnings

There are currently no watches in effect.